Time;durP1;ratioP1;P1;durP2;ratioP2;P2;SDS_P1;SDS_P2;PMS_P1;PMS_P2;Temp;Humidity;BMP_temperature;BMP_pressure;BME280_temperature;BME280_humidity;BME280_pressure;Samples;Min_cycle;Max_cycle;Signal;HPM_P1;HPM_P2
2023/03/19 00:02:02;;;;;;;6.10;3.88;;;11.60;84.30;;;;;;4980155;28;20027;-83
2023/03/19 00:04:28;;;;;;;6.15;3.60;;;11.60;84.40;;;;;;4982967;28;20059;-83
2023/03/19 00:06:53;;;;;;;5.65;3.38;;;11.60;84.30;;;;;;5000475;28;20077;-82
2023/03/19 00:09:20;;;;;;;6.05;3.60;;;11.60;84.30;;;;;;4999955;28;20031;-82
2023/03/19 00:11:47;;;;;;;6.80;4.10;;;11.60;84.30;;;;;;4982575;28;20030;-82
2023/03/19 00:14:12;;;;;;;5.63;3.58;;;11.60;84.40;;;;;;4981773;28;20034;-82
2023/03/19 00:16:38;;;;;;;5.75;3.70;;;11.60;84.40;;;;;;4981521;28;20022;-80
2023/03/19 00:19:04;;;;;;;5.53;3.42;;;11.60;84.30;;;;;;4994622;28;20507;-81
2023/03/19 00:21:31;;;;;;;5.43;3.65;;;11.60;84.30;;;;;;4996142;28;20023;-82
2023/03/19 00:23:59;;;;;;;5.00;3.50;;;11.60;84.30;;;;;;4981032;28;20022;-81
2023/03/19 00:26:27;;;;;;;6.70;4.00;;;11.60;84.30;;;;;;4976142;28;20425;-81
2023/03/19 00:28:52;;;;;;;6.47;3.60;;;11.60;84.40;;;;;;4979060;28;20028;-81
2023/03/19 00:31:18;;;;;;;5.55;3.47;;;11.60;84.00;;;;;;4996920;28;20459;-82
2023/03/19 00:33:44;;;;;;;5.95;3.65;;;11.60;84.40;;;;;;4996948;28;20050;-82
2023/03/19 00:36:10;;;;;;;5.80;3.40;;;11.60;84.40;;;;;;4978895;28;20034;-82
2023/03/19 00:38:36;;;;;;;5.30;3.45;;;11.60;84.30;;;;;;4979420;28;20473;-81
2023/03/19 00:41:04;;;;;;;5.15;3.25;;;11.60;84.40;;;;;;4997158;28;20029;-81
2023/03/19 00:43:29;;;;;;;6.43;3.58;;;11.60;84.30;;;;;;4976338;28;20078;-81
2023/03/19 00:45:55;;;;;;;5.07;3.45;;;11.60;84.40;;;;;;4976381;28;20018;-81
2023/03/19 00:48:20;;;;;;;5.10;3.20;;;11.60;84.30;;;;;;4976355;28;20034;-79
2023/03/19 00:50:49;;;;;;;5.47;3.55;;;11.60;84.40;;;;;;4996937;28;20033;-83
2023/03/19 00:53:15;;;;;;;6.80;3.40;;;11.60;84.40;;;;;;4982139;28;20026;-82
2023/03/19 00:55:41;;;;;;;5.60;3.20;;;11.60;84.40;;;;;;4997904;28;20509;-82
2023/03/19 00:58:06;;;;;;;5.60;3.47;;;11.60;84.40;;;;;;4997706;28;20030;-82
2023/03/19 01:00:33;;;;;;;5.78;3.80;;;11.60;84.40;;;;;;4996828;28;20023;-82
2023/03/19 01:02:59;;;;;;;5.65;3.65;;;11.60;84.30;;;;;;4978635;28;20022;-82
2023/03/19 01:05:25;;;;;;;5.32;3.00;;;11.60;84.30;;;;;;4997109;28;20050;-82
2023/03/19 01:07:50;;;;;;;5.75;3.40;;;11.60;84.30;;;;;;4980222;28;20444;-81
2023/03/19 01:10:21;;;;;;;6.32;3.50;;;11.60;84.40;;;;;;4979531;28;20033;-82
2023/03/19 01:12:47;;;;;;;5.65;3.40;;;11.60;84.40;;;;;;4978097;28;20057;-81
2023/03/19 01:15:13;;;;;;;5.93;3.50;;;11.70;84.40;;;;;;4979300;28;20034;-81
2023/03/19 01:17:39;;;;;;;5.57;3.60;;;11.60;84.40;;;;;;4980742;28;20026;-81
2023/03/19 01:20:11;;;;;;;5.47;3.15;;;11.60;84.40;;;;;;4981421;28;20117;-78
2023/03/19 01:22:37;;;;;;;5.93;3.38;;;11.60;84.40;;;;;;4980942;28;20086;-80
2023/03/19 01:25:04;;;;;;;4.70;3.10;;;11.60;84.40;;;;;;4998263;28;20081;-81
2023/03/19 01:27:30;;;;;;;5.50;3.33;;;11.60;84.40;;;;;;4979881;28;20027;-82
2023/03/19 01:29:55;;;;;;;5.00;3.20;;;11.60;84.40;;;;;;4979218;28;20031;-82
2023/03/19 01:32:22;;;;;;;6.47;3.63;;;11.60;84.40;;;;;;4979022;28;20086;-81
2023/03/19 01:34:47;;;;;;;6.10;3.78;;;11.60;84.40;;;;;;4978682;28;20121;-81
2023/03/19 01:37:13;;;;;;;5.50;3.28;;;11.60;84.40;;;;;;4978762;28;20117;-81
2023/03/19 01:39:38;;;;;;;6.38;3.45;;;11.60;84.40;;;;;;4978822;28;20056;-81
2023/03/19 01:42:04;;;;;;;6.18;3.38;;;11.60;84.40;;;;;;4977619;28;20022;-81
2023/03/19 01:44:37;;;;;;;5.88;3.30;;;11.60;84.40;;;;;;4978025;28;20473;-81
2023/03/19 01:47:06;;;;;;;6.43;3.50;;;11.60;84.40;;;;;;4976912;28;20081;-82
2023/03/19 01:49:33;;;;;;;5.57;3.40;;;11.60;84.40;;;;;;4977637;28;20030;-81
2023/03/19 01:52:01;;;;;;;6.00;3.58;;;11.60;84.40;;;;;;4975877;28;20392;-81
2023/03/19 01:54:30;;;;;;;6.55;3.55;;;11.60;84.40;;;;;;4993172;28;20026;-81
2023/03/19 01:57:01;;;;;;;5.03;3.28;;;11.60;84.40;;;;;;4975148;28;20033;-81
2023/03/19 01:59:35;;;;;;;5.75;3.30;;;11.60;84.40;;;;;;4975433;28;20019;-81
2023/03/19 02:02:09;;;;;;;6.43;3.38;;;11.60;84.40;;;;;;4976239;28;20034;-81
2023/03/19 02:04:37;;;;;;;5.60;3.20;;;11.60;84.90;;;;;;4977537;28;20026;-81
2023/03/19 02:07:04;;;;;;;4.95;3.03;;;11.60;84.40;;;;;;4976680;28;20035;-81
2023/03/19 02:09:30;;;;;;;6.82;3.50;;;11.60;84.40;;;;;;4976653;28;20030;-80
2023/03/19 02:11:56;;;;;;;5.32;3.20;;;11.60;84.40;;;;;;4977394;28;20086;-81
2023/03/19 02:14:22;;;;;;;5.55;3.28;;;11.60;84.40;;;;;;4998290;28;20023;-81
2023/03/19 02:16:48;;;;;;;4.80;3.08;;;11.60;84.40;;;;;;4978700;28;20081;-81
2023/03/19 02:19:20;;;;;;;5.63;3.03;;;11.60;84.40;;;;;;4978770;28;20030;-81
2023/03/19 02:21:46;;;;;;;4.88;2.90;;;11.60;84.40;;;;;;4978510;28;20018;-81
2023/03/19 02:24:18;;;;;;;5.20;3.13;;;11.60;84.40;;;;;;4995875;28;20030;-81
2023/03/19 02:26:45;;;;;;;5.60;3.30;;;11.60;84.40;;;;;;4978645;28;20038;-81
2023/03/19 02:29:10;;;;;;;5.22;3.00;;;11.60;84.40;;;;;;4978475;28;20089;-81
2023/03/19 02:31:36;;;;;;;5.05;2.90;;;11.60;84.40;;;;;;4995747;28;20366;-80
2023/03/19 02:34:05;;;;;;;4.93;3.00;;;11.60;84.40;;;;;;4995783;28;20045;-81
2023/03/19 02:36:40;;;;;;;5.00;3.00;;;11.60;84.40;;;;;;4978243;28;20038;-81
2023/03/19 02:39:13;;;;;;;5.30;3.10;;;11.60;84.40;;;;;;4978642;28;20508;-81
2023/03/19 02:41:40;;;;;;;5.15;3.22;;;11.60;84.90;;;;;;4996315;28;20026;-80
2023/03/19 02:44:10;;;;;;;4.82;3.03;;;11.60;84.40;;;;;;4978900;28;20023;-81
2023/03/19 02:46:36;;;;;;;4.80;3.00;;;11.60;84.40;;;;;;4995658;28;20026;-80
2023/03/19 02:49:01;;;;;;;5.63;3.20;;;11.60;84.40;;;;;;4978144;28;20030;-79
2023/03/19 02:51:27;;;;;;;4.80;2.90;;;11.60;84.40;;;;;;4978329;28;20026;-81
2023/03/19 02:53:52;;;;;;;4.95;3.15;;;11.60;84.40;;;;;;4978711;28;20551;-81
2023/03/19 02:56:17;;;;;;;5.00;3.03;;;11.60;84.40;;;;;;4996102;28;20126;-81
2023/03/19 02:58:43;;;;;;;4.93;3.03;;;11.60;84.40;;;;;;4978012;28;20037;-80
2023/03/19 03:01:08;;;;;;;5.32;3.00;;;11.60;84.40;;;;;;4977789;28;20472;-82
2023/03/19 03:03:34;;;;;;;4.57;2.88;;;11.60;84.40;;;;;;4978402;28;20041;-81
2023/03/19 03:05:59;;;;;;;5.20;2.78;;;11.60;84.40;;;;;;4996308;28;20425;-81
2023/03/19 03:08:26;;;;;;;5.15;3.10;;;11.60;84.40;;;;;;4978476;28;20027;-81
2023/03/19 03:10:51;;;;;;;4.75;3.15;;;11.60;84.40;;;;;;4995304;28;20641;-81
2023/03/19 03:13:17;;;;;;;5.05;3.20;;;11.60;84.90;;;;;;4994878;28;20030;-80
2023/03/19 03:15:42;;;;;;;5.53;3.22;;;11.60;84.40;;;;;;4977604;28;20027;-81
2023/03/19 03:18:08;;;;;;;5.32;3.15;;;11.60;84.40;;;;;;4994788;28;20035;-81
2023/03/19 03:20:33;;;;;;;4.55;2.83;;;11.60;84.40;;;;;;4994755;28;20066;-81
2023/03/19 03:22:59;;;;;;;4.93;2.85;;;11.60;84.40;;;;;;4994697;28;20022;-81
2023/03/19 03:25:25;;;;;;;5.18;3.00;;;11.50;84.30;;;;;;4983267;28;20015;-83
2023/03/19 03:27:50;;;;;;;4.90;2.85;;;11.60;84.40;;;;;;4986239;28;20049;-82
2023/03/19 03:30:16;;;;;;;4.78;2.78;;;11.60;84.40;;;;;;4984727;28;20019;-82
2023/03/19 03:32:42;;;;;;;5.63;3.00;;;11.60;84.40;;;;;;4985167;28;20026;-80
2023/03/19 03:35:08;;;;;;;4.60;2.70;;;11.60;84.40;;;;;;5003226;28;20058;-82
2023/03/19 03:37:36;;;;;;;5.20;3.28;;;11.60;84.40;;;;;;5018326;23;20046;-87
2023/03/19 03:40:06;;;;;;;5.20;2.72;;;11.60;84.40;;;;;;4989706;28;20089;-86
2023/03/19 03:42:32;;;;;;;4.30;2.67;;;11.60;84.40;;;;;;4996838;28;20025;-87
2023/03/19 03:44:58;;;;;;;4.75;2.80;;;11.60;84.40;;;;;;4994758;28;20026;-86
2023/03/19 03:47:23;;;;;;;5.18;2.92;;;11.60;84.40;;;;;;4980046;28;20033;-86
2023/03/19 03:49:49;;;;;;;4.97;3.00;;;11.60;84.40;;;;;;4980529;28;20026;-85
2023/03/19 03:52:15;;;;;;;5.65;3.00;;;11.60;84.40;;;;;;4982316;28;20078;-86
2023/03/19 03:54:40;;;;;;;5.20;2.83;;;11.60;84.40;;;;;;4974694;28;20037;-85
2023/03/19 03:57:06;;;;;;;4.53;2.80;;;11.60;84.40;;;;;;4972424;28;20035;-86
2023/03/19 03:59:32;;;;;;;4.53;2.70;;;11.70;84.50;;;;;;4972750;28;20019;-87
2023/03/19 04:01:58;;;;;;;4.30;2.50;;;11.50;84.30;;;;;;4973652;28;20053;-87
2023/03/19 04:04:23;;;;;;;4.78;2.90;;;11.60;84.40;;;;;;4974281;28;20027;-86
2023/03/19 04:06:49;;;;;;;4.75;2.80;;;11.70;84.50;;;;;;4973330;28;20027;-89
2023/03/19 04:09:16;;;;;;;4.07;2.47;;;11.60;84.40;;;;;;4971596;28;20031;-87
2023/03/19 04:11:41;;;;;;;4.72;2.80;;;11.60;84.40;;;;;;4970544;28;20027;-86
2023/03/19 04:14:07;;;;;;;4.95;2.90;;;11.60;84.40;;;;;;4964284;28;20027;-86
2023/03/19 04:16:33;;;;;;;4.50;2.60;;;11.60;84.40;;;;;;4965144;28;20075;-87
2023/03/19 04:18:59;;;;;;;4.68;2.70;;;11.70;84.50;;;;;;4964188;28;20070;-86
2023/03/19 04:21:25;;;;;;;4.70;2.53;;;11.60;84.40;;;;;;4965020;28;20453;-86
2023/03/19 04:23:51;;;;;;;5.15;2.80;;;11.60;84.40;;;;;;4966013;28;20023;-88
2023/03/19 04:26:16;;;;;;;4.63;2.63;;;11.70;84.50;;;;;;4983836;28;20557;-87
2023/03/19 04:28:42;;;;;;;3.83;2.40;;;11.60;84.40;;;;;;4981570;28;20031;-86
2023/03/19 04:31:08;;;;;;;4.50;2.70;;;11.60;84.40;;;;;;4962912;28;20039;-86
2023/03/19 04:33:34;;;;;;;4.82;2.63;;;11.60;84.40;;;;;;4967746;28;20023;-86
2023/03/19 04:36:00;;;;;;;4.35;2.60;;;11.60;84.40;;;;;;4971181;28;20023;-86
2023/03/19 04:38:26;;;;;;;4.88;2.70;;;11.60;84.40;;;;;;4965626;28;20490;-86
2023/03/19 04:40:52;;;;;;;4.00;2.60;;;11.60;84.40;;;;;;4971674;28;20023;-86
2023/03/19 04:43:18;;;;;;;4.78;2.80;;;11.60;84.40;;;;;;4973407;28;20130;-87
2023/03/19 04:45:44;;;;;;;4.72;2.75;;;11.60;84.40;;;;;;4971711;28;20092;-86
2023/03/19 04:48:09;;;;;;;4.20;2.40;;;11.60;84.40;;;;;;4962563;28;20035;-87
2023/03/19 04:50:35;;;;;;;4.15;2.50;;;11.60;84.40;;;;;;4961873;28;20151;-85
2023/03/19 04:53:01;;;;;;;4.45;2.50;;;11.60;84.40;;;;;;4980426;28;20055;-88
2023/03/19 04:55:27;;;;;;;3.75;2.40;;;11.60;84.40;;;;;;4962392;28;20405;-86
2023/03/19 04:57:52;;;;;;;4.63;2.70;;;11.60;84.40;;;;;;4961838;28;20086;-86
2023/03/19 05:00:19;;;;;;;5.07;2.72;;;11.60;84.40;;;;;;4963021;28;20118;-87
2023/03/19 05:02:46;;;;;;;4.13;2.50;;;11.60;84.40;;;;;;4961952;28;20047;-86
2023/03/19 05:05:15;;;;;;;4.30;2.40;;;11.60;84.40;;;;;;4962861;28;20110;-87
2023/03/19 05:07:41;;;;;;;4.50;2.60;;;11.60;84.40;;;;;;4959594;28;20437;-86
2023/03/19 05:10:08;;;;;;;4.28;2.35;;;11.60;84.40;;;;;;4959996;28;20022;-85
2023/03/19 05:12:34;;;;;;;4.85;2.47;;;11.60;84.40;;;;;;4961571;28;20485;-87
2023/03/19 05:15:01;;;;;;;4.07;2.20;;;11.60;84.40;;;;;;4964178;28;20026;-86
2023/03/19 05:17:27;;;;;;;4.82;2.58;;;11.60;84.40;;;;;;4967537;28;20030;-87
2023/03/19 05:19:53;;;;;;;4.43;2.53;;;11.60;84.40;;;;;;4965860;28;20023;-86
2023/03/19 05:22:19;;;;;;;4.57;2.42;;;11.60;84.40;;;;;;4963130;28;20090;-87
2023/03/19 05:24:45;;;;;;;4.03;2.45;;;11.60;84.90;;;;;;4960310;28;20027;-84
2023/03/19 05:27:11;;;;;;;3.45;1.90;;;11.60;84.40;;;;;;4980915;28;20026;-86
2023/03/19 05:29:37;;;;;;;4.68;2.50;;;11.60;84.40;;;;;;4966607;28;20126;-86
2023/03/19 05:32:03;;;;;;;5.05;2.55;;;11.60;84.40;;;;;;4961058;28;20066;-86
2023/03/19 05:34:29;;;;;;;4.13;2.50;;;11.60;84.40;;;;;;4960963;28;20053;-87
2023/03/19 05:36:55;;;;;;;5.07;2.67;;;11.60;84.40;;;;;;4959543;28;20027;-87
2023/03/19 05:39:20;;;;;;;4.22;2.42;;;11.60;84.40;;;;;;4961947;28;20022;-86
2023/03/19 05:41:46;;;;;;;3.55;2.17;;;11.70;84.50;;;;;;4978161;28;20026;-85
2023/03/19 05:44:11;;;;;;;4.80;2.28;;;11.60;84.40;;;;;;4961345;28;20027;-87
2023/03/19 05:46:37;;;;;;;3.97;2.30;;;11.60;84.40;;;;;;4968821;28;20026;-87
2023/03/19 05:49:03;;;;;;;4.00;2.33;;;11.60;84.40;;;;;;4982375;28;20444;-87
2023/03/19 05:51:30;;;;;;;5.43;2.80;;;11.60;84.40;;;;;;5000335;28;20514;-86
2023/03/19 05:53:56;;;;;;;4.43;2.40;;;11.60;84.40;;;;;;4983270;28;20022;-88
2023/03/19 05:56:21;;;;;;;4.25;2.40;;;11.60;84.40;;;;;;4981367;28;20030;-85
2023/03/19 05:58:47;;;;;;;4.18;2.40;;;11.80;84.50;;;;;;4987836;28;20025;-86
2023/03/19 06:01:12;;;;;;;4.18;2.40;;;11.60;84.40;;;;;;4984423;28;20125;-87
2023/03/19 06:03:38;;;;;;;4.28;2.60;;;11.60;84.40;;;;;;4999108;28;20026;-86
2023/03/19 06:06:04;;;;;;;4.10;2.40;;;11.60;84.40;;;;;;4981737;28;20201;-87
2023/03/19 06:08:29;;;;;;;4.05;2.15;;;11.60;84.40;;;;;;4981973;28;20038;-86
2023/03/19 06:10:55;;;;;;;4.90;2.80;;;11.60;84.40;;;;;;4982635;28;20027;-86
2023/03/19 06:13:20;;;;;;;4.15;2.33;;;11.60;84.40;;;;;;4983737;28;20030;-86
2023/03/19 06:15:48;;;;;;;4.28;2.35;;;11.60;84.40;;;;;;4985316;28;20022;-85
2023/03/19 06:18:14;;;;;;;4.25;2.40;;;11.70;84.40;;;;;;4991108;28;20109;-86
2023/03/19 06:20:40;;;;;;;4.18;2.35;;;11.70;84.30;;;;;;4995169;28;20027;-84
2023/03/19 06:23:08;;;;;;;4.03;2.40;;;11.70;84.20;;;;;;4978557;28;20521;-83
2023/03/19 06:25:34;;;;;;;4.45;2.30;;;11.70;84.10;;;;;;4978514;28;20090;-87
2023/03/19 09:55:52;;;;;;;3.28;1.77;;;12.70;81.40;;;;;;5339813;23;20037;-80
2023/03/19 09:58:27;;;;;;;3.00;1.80;;;12.70;81.40;;;;;;5015300;23;20065;-76
2023/03/19 10:00:54;;;;;;;4.78;1.83;;;12.70;81.50;;;;;;4995470;28;20022;-75
2023/03/19 10:03:28;;;;;;;3.10;1.70;;;12.70;81.50;;;;;;4978496;28;20069;-75
2023/03/19 10:06:03;;;;;;;3.15;1.73;;;12.70;81.50;;;;;;4998555;28;20023;-79
2023/03/19 10:08:54;;;;;;;2.95;1.65;;;12.70;81.40;;;;;;4997321;28;20497;-79
2023/03/19 10:11:49;;;;;;;2.83;1.70;;;12.80;81.40;;;;;;4969675;28;20088;-79
2023/03/19 10:15:01;;;;;;;5.88;2.00;;;12.80;81.30;;;;;;4983691;28;20117;-80
2023/03/19 10:17:32;;;;;;;6.32;2.05;;;12.90;81.60;;;;;;4979354;28;20054;-79
2023/03/19 10:20:06;;;;;;;7.70;2.40;;;12.90;81.40;;;;;;4982682;28;20028;-80
2023/03/19 10:22:48;;;;;;;12.60;2.63;;;13.00;81.70;;;;;;4997357;28;20027;-79
2023/03/19 10:25:25;;;;;;;8.02;2.30;;;13.00;81.40;;;;;;5000774;28;20027;-79
2023/03/19 10:27:59;;;;;;;6.38;2.30;;;12.90;81.40;;;;;;4997878;28;20113;-79
2023/03/19 10:30:25;;;;;;;11.95;2.58;;;12.90;81.50;;;;;;4981141;28;20042;-78
2023/03/19 10:33:13;;;;;;;8.65;2.40;;;12.90;81.60;;;;;;4999136;28;20027;-79
2023/03/19 10:35:43;;;;;;;6.80;2.20;;;12.80;81.50;;;;;;4997343;28;20050;-79
2023/03/19 10:38:22;;;;;;;7.72;2.40;;;12.80;81.80;;;;;;4998319;28;20023;-79
2023/03/19 10:40:55;;;;;;;8.73;2.90;;;12.80;81.80;;;;;;4996964;28;20022;-79
2023/03/19 10:43:24;;;;;;;5.97;2.10;;;12.80;81.90;;;;;;4980798;28;20026;-79
2023/03/19 10:45:50;;;;;;;5.60;2.38;;;12.80;82.00;;;;;;4996786;28;20113;-79
2023/03/19 10:48:17;;;;;;;7.80;2.20;;;12.80;82.00;;;;;;4983077;28;20085;-79
2023/03/19 10:50:54;;;;;;;7.22;2.55;;;12.80;82.10;;;;;;4997625;28;20457;-79
2023/03/19 10:53:34;;;;;;;6.03;2.30;;;12.80;82.30;;;;;;4980748;28;20026;-79
2023/03/19 10:56:04;;;;;;;6.50;2.53;;;12.80;82.30;;;;;;4998369;28;20551;-80
2023/03/19 10:58:32;;;;;;;7.15;2.70;;;12.80;82.40;;;;;;4980790;28;20121;-79
2023/03/19 11:01:07;;;;;;;8.23;2.70;;;12.80;83.40;;;;;;4997692;28;20074;-79
2023/03/19 11:03:49;;;;;;;15.05;2.88;;;12.70;83.20;;;;;;4999457;28;20075;-79
2023/03/19 11:06:23;;;;;;;11.25;2.88;;;12.70;83.40;;;;;;5000455;28;20101;-79
2023/03/19 11:08:56;;;;;;;8.05;2.53;;;12.70;83.60;;;;;;4982304;28;20037;-79
2023/03/19 11:11:31;;;;;;;8.65;2.92;;;12.70;83.50;;;;;;4982102;28;20402;-79
2023/03/19 11:13:57;;;;;;;7.40;2.80;;;12.70;83.50;;;;;;4999477;28;20436;-78
2023/03/19 11:16:22;;;;;;;12.88;2.88;;;12.60;83.40;;;;;;4998208;28;20022;-79
2023/03/19 11:18:49;;;;;;;7.93;2.78;;;12.60;83.40;;;;;;4997752;28;20468;-79
2023/03/19 11:21:29;;;;;;;6.03;2.67;;;12.60;83.40;;;;;;4980316;28;20019;-79
2023/03/19 11:24:03;;;;;;;7.00;2.60;;;12.60;83.30;;;;;;4998250;28;20031;-78
2023/03/19 11:26:29;;;;;;;7.20;2.67;;;12.60;83.30;;;;;;4996555;28;20460;-79
2023/03/19 11:29:01;;;;;;;6.70;2.63;;;12.60;83.30;;;;;;4997866;28;20038;-79
2023/03/19 11:31:32;;;;;;;6.70;2.42;;;12.60;83.20;;;;;;4996015;28;20030;-79
2023/03/19 11:34:32;;;;;;;7.10;2.70;;;12.60;83.20;;;;;;4997388;28;20022;-79
2023/03/19 11:37:18;;;;;;;;;;;12.60;83.20;;;;;;4930636;28;20041;-79
2023/03/19 11:40:11;;;;;;;7.45;2.45;;;12.60;83.00;;;;;;4956109;28;19936;-78
2023/03/19 11:43:09;;;;;;;7.00;2.35;;;12.60;83.00;;;;;;4996456;28;20033;-79
2023/03/19 11:45:57;;;;;;;5.57;2.30;;;12.60;82.90;;;;;;4994943;28;20377;-79
2023/03/19 11:48:34;;;;;;;5.20;2.15;;;12.60;82.80;;;;;;4978856;28;20096;-78
2023/03/19 11:51:21;;;;;;;5.30;2.10;;;12.60;82.70;;;;;;4996347;28;20037;-79
2023/03/19 11:54:18;;;;;;;4.57;2.20;;;12.70;82.60;;;;;;4979158;28;20026;-79
2023/03/19 11:57:07;;;;;;;4.28;2.30;;;12.80;82.30;;;;;;4949867;28;20038;-79
2023/03/19 11:59:35;;;;;;;5.70;2.40;;;12.80;82.00;;;;;;4996485;28;20022;-79
2023/03/19 12:02:26;;;;;;;5.07;2.40;;;12.90;82.10;;;;;;4979073;28;20365;-80
2023/03/19 12:05:05;;;;;;;5.78;2.30;;;12.80;81.90;;;;;;4996602;28;20097;-79
2023/03/19 12:07:39;;;;;;;7.88;2.70;;;12.80;82.00;;;;;;4997551;28;20033;-79
2023/03/19 12:10:42;;;;;;;5.38;2.60;;;12.80;82.10;;;;;;4996376;28;20085;-78
2023/03/19 12:13:40;;;;;;;4.70;2.10;;;12.80;82.20;;;;;;4977157;28;20054;-80
2023/03/19 12:16:34;;;;;;;6.75;2.60;;;12.80;82.10;;;;;;4977423;28;20033;-79
2023/03/19 12:19:27;;;;;;;6.28;2.40;;;12.80;82.10;;;;;;4977217;28;20033;-79
2023/03/19 12:22:16;;;;;;;5.97;2.70;;;12.90;82.20;;;;;;4978110;28;20026;-81
2023/03/19 12:25:08;;;;;;;8.98;2.90;;;12.80;82.40;;;;;;4979204;28;20094;-80
2023/03/19 12:27:46;;;;;;;5.38;2.80;;;12.80;82.60;;;;;;4978045;28;20041;-81
2023/03/19 12:30:12;;;;;;;6.60;2.80;;;12.80;82.50;;;;;;4978167;28;20054;-80
2023/03/19 12:32:45;;;;;;;5.85;2.80;;;12.80;82.50;;;;;;4978520;28;20026;-81
2023/03/19 12:35:17;;;;;;;6.50;2.90;;;12.80;82.50;;;;;;4977672;28;20022;-81
2023/03/19 12:38:15;;;;;;;5.68;2.78;;;12.90;82.50;;;;;;4994671;28;20022;-81
2023/03/19 12:40:57;;;;;;;5.68;2.90;;;12.90;82.50;;;;;;4996098;28;20113;-81
2023/03/19 12:43:41;;;;;;;8.27;3.10;;;12.90;82.40;;;;;;4993374;28;20057;-81
2023/03/19 12:46:24;;;;;;;8.15;3.15;;;12.90;82.40;;;;;;4977441;28;20022;-81
2023/03/19 12:48:55;;;;;;;5.03;2.65;;;12.90;82.40;;;;;;4993151;28;20113;-81
2023/03/19 12:51:26;;;;;;;4.65;2.70;;;12.90;82.30;;;;;;4976905;28;20401;-81
2023/03/19 12:53:57;;;;;;;7.00;3.20;;;12.90;82.40;;;;;;4995455;28;20026;-81
2023/03/19 12:56:42;;;;;;;6.00;2.92;;;12.90;82.50;;;;;;4994785;28;20030;-80
2023/03/19 12:59:19;;;;;;;5.68;3.00;;;12.90;82.40;;;;;;4995126;28;20037;-81
2023/03/19 13:01:49;;;;;;;6.75;3.20;;;12.90;82.40;;;;;;4994831;28;20057;-80
2023/03/19 13:04:23;;;;;;;5.97;3.30;;;12.80;82.40;;;;;;4993668;28;20015;-80
2023/03/19 13:06:54;;;;;;;5.88;3.40;;;12.90;82.50;;;;;;4981351;28;20045;-81
2023/03/19 13:09:55;;;;;;;6.03;3.03;;;12.90;82.50;;;;;;4977364;28;20031;-81
2023/03/19 13:12:30;;;;;;;6.35;2.85;;;12.80;82.50;;;;;;4972566;28;20030;-81
2023/03/19 13:15:14;;;;;;;6.00;3.13;;;12.80;82.40;;;;;;4992581;28;20033;-80
2023/03/19 13:17:56;;;;;;;6.47;3.25;;;12.80;82.50;;;;;;4975984;28;20555;-80
2023/03/19 13:20:49;;;;;;;6.32;3.25;;;12.80;82.60;;;;;;4975711;28;20485;-80
2023/03/19 13:23:25;;;;;;;6.45;3.30;;;12.80;82.70;;;;;;4976053;28;20033;-81
2023/03/19 13:25:53;;;;;;;5.40;2.80;;;12.80;82.80;;;;;;4993643;28;20046;-81
2023/03/19 13:28:28;;;;;;;6.10;3.05;;;12.80;82.70;;;;;;4991554;28;20030;-80
2023/03/19 13:30:59;;;;;;;7.05;3.00;;;12.80;82.70;;;;;;4974993;28;20054;-80
2023/03/19 13:33:26;;;;;;;7.03;3.40;;;12.80;82.70;;;;;;4975394;28;20030;-80
2023/03/19 13:35:54;;;;;;;6.10;3.22;;;12.80;82.70;;;;;;4992408;28;20027;-81
2023/03/19 13:38:25;;;;;;;7.00;3.40;;;12.80;82.80;;;;;;4992050;28;20030;-80
2023/03/19 13:40:56;;;;;;;6.70;3.10;;;12.80;82.90;;;;;;4992539;28;20026;-80
2023/03/19 13:43:29;;;;;;;6.45;3.35;;;12.90;82.60;;;;;;5005049;28;20030;-80
2023/03/19 13:46:04;;;;;;;6.50;3.35;;;12.90;82.60;;;;;;4986991;28;20165;-80
2023/03/19 13:48:35;;;;;;;6.55;3.25;;;12.90;82.50;;;;;;4986754;28;20033;-81
2023/03/19 13:51:16;;;;;;;6.63;3.38;;;12.90;82.50;;;;;;5003074;28;20560;-80
2023/03/19 13:54:01;;;;;;;;;;;12.90;82.60;;;;;;4985479;28;20030;-80
2023/03/19 13:56:27;;;;;;;7.53;3.40;;;12.90;82.60;;;;;;4984876;28;19906;-81
2023/03/19 13:59:22;;;;;;;8.00;3.60;;;12.90;82.70;;;;;;4985034;28;20032;-80
2023/03/19 14:01:48;;;;;;;6.25;3.40;;;12.80;82.70;;;;;;4983829;28;20029;-82
2023/03/19 14:04:18;;;;;;;7.55;3.28;;;12.80;82.70;;;;;;5000620;28;20287;-81
2023/03/19 14:06:58;;;;;;;6.55;3.30;;;12.80;82.70;;;;;;4982937;28;20026;-81
2023/03/19 14:09:36;;;;;;;6.28;3.40;;;12.80;82.70;;;;;;4984391;28;20027;-81
2023/03/19 14:12:54;;;;;;;7.15;3.20;;;12.80;82.80;;;;;;4986112;28;20114;-80
2023/03/19 14:15:26;;;;;;;9.50;3.85;;;12.70;82.80;;;;;;4981873;28;20038;-80
2023/03/19 14:17:52;;;;;;;6.25;3.53;;;12.80;82.80;;;;;;5004001;28;20034;-81
2023/03/19 14:20:17;;;;;;;6.63;3.13;;;12.80;82.80;;;;;;4982281;28;20027;-80
2023/03/19 14:23:05;;;;;;;7.38;3.47;;;12.80;82.80;;;;;;4981830;28;20421;-80
2023/03/19 14:25:55;;;;;;;7.35;3.70;;;12.80;82.80;;;;;;4999906;28;20396;-80
2023/03/19 14:28:36;;;;;;;8.15;3.15;;;12.80;82.80;;;;;;4981445;28;20022;-79
2023/03/19 14:31:03;;;;;;;6.35;3.53;;;12.80;82.80;;;;;;4981474;28;20511;-80
2023/03/19 14:33:36;;;;;;;7.00;3.38;;;12.80;82.90;;;;;;4999404;28;20034;-81
2023/03/19 14:36:03;;;;;;;7.40;3.53;;;12.70;83.00;;;;;;5001973;28;20069;-81
2023/03/19 14:38:37;;;;;;;6.78;3.53;;;12.80;83.00;;;;;;5001431;28;20128;-80
2023/03/19 14:41:04;;;;;;;6.03;3.47;;;12.70;83.00;;;;;;5001152;28;20019;-80
2023/03/19 14:43:57;;;;;;;6.82;3.20;;;12.70;82.90;;;;;;5002710;28;20473;-81
2023/03/19 14:47:09;;;;;;;6.78;3.30;;;12.70;83.00;;;;;;4985164;28;20547;-80
2023/03/19 14:50:12;;;;;;;6.60;3.40;;;12.70;83.00;;;;;;5000524;28;20128;-81
2023/03/19 14:52:59;;;;;;;6.28;3.25;;;12.70;83.00;;;;;;4983720;28;20397;-82
2023/03/19 14:55:34;;;;;;;10.57;3.95;;;12.70;83.10;;;;;;4981868;28;20086;-82
2023/03/19 14:58:00;;;;;;;7.80;4.00;;;12.70;83.50;;;;;;4998010;28;20038;-82
2023/03/19 15:00:26;;;;;;;7.82;4.18;;;12.70;84.10;;;;;;4996794;28;20027;-82
2023/03/19 15:02:52;;;;;;;7.95;4.30;;;12.80;84.30;;;;;;4981369;28;20022;-81
2023/03/19 15:05:22;;;;;;;7.97;4.57;;;12.80;85.40;;;;;;4981371;28;20026;-82
2023/03/19 15:07:51;;;;;;;7.82;5.05;;;12.90;85.80;;;;;;4998784;28;20026;-81
2023/03/19 15:10:20;;;;;;;8.05;4.85;;;12.90;85.10;;;;;;4998270;28;20425;-81
2023/03/19 15:13:05;;;;;;;9.30;4.60;;;12.90;85.60;;;;;;4999039;28;20031;-81
2023/03/19 15:15:37;;;;;;;10.80;4.97;;;12.90;85.40;;;;;;4998430;28;20031;-80
2023/03/19 15:18:11;;;;;;;9.10;4.97;;;12.80;85.30;;;;;;4981433;28;20070;-77
2023/03/19 15:20:46;;;;;;;7.90;5.07;;;12.80;85.50;;;;;;4996080;28;20034;-82
2023/03/19 15:23:16;;;;;;;9.15;4.68;;;12.80;85.60;;;;;;4999018;28;20408;-81
2023/03/19 15:25:47;;;;;;;9.35;4.75;;;12.80;85.70;;;;;;4996741;28;20023;-81
2023/03/19 15:28:18;;;;;;;9.82;5.18;;;12.70;85.50;;;;;;4997987;28;20030;-80
2023/03/19 15:30:45;;;;;;;9.38;5.38;;;12.70;85.50;;;;;;4996706;28;20042;-80
2023/03/19 15:33:25;;;;;;;9.48;4.95;;;12.70;85.60;;;;;;4994881;28;20022;-77
2023/03/19 15:35:53;;;;;;;9.35;4.93;;;12.70;85.40;;;;;;4993276;28;20041;-77
2023/03/19 15:38:19;;;;;;;7.55;5.03;;;12.70;85.40;;;;;;4976935;28;20656;-77
2023/03/19 15:40:45;;;;;;;9.57;4.88;;;12.70;85.40;;;;;;4994191;28;20389;-77
2023/03/19 15:43:12;;;;;;;9.65;5.22;;;12.70;85.40;;;;;;4978491;28;20030;-78
2023/03/19 15:45:39;;;;;;;10.50;5.50;;;12.70;85.30;;;;;;4989394;28;20069;-78
2023/03/19 15:48:12;;;;;;;10.82;5.60;;;12.70;85.30;;;;;;4985321;28;20106;-78
2023/03/19 15:50:42;;;;;;;10.30;5.57;;;12.70;85.40;;;;;;4985462;28;20030;-79
2023/03/19 15:53:18;;;;;;;8.85;5.32;;;12.60;85.20;;;;;;4979669;28;20117;-78
2023/03/19 15:55:48;;;;;;;7.57;4.82;;;12.60;85.20;;;;;;4997074;28;20184;-79
2023/03/19 15:58:18;;;;;;;8.25;5.22;;;12.60;85.10;;;;;;4997858;28;20034;-79
2023/03/19 16:00:44;;;;;;;8.57;4.93;;;12.60;85.10;;;;;;4979697;28;20031;-78
2023/03/19 16:03:46;;;;;;;8.63;5.47;;;12.60;85.10;;;;;;4979203;28;20026;-79
2023/03/19 16:06:27;;;;;;;8.02;5.07;;;12.60;84.90;;;;;;4956363;28;20026;-78
2023/03/19 16:08:55;;;;;;;7.43;4.70;;;12.60;84.90;;;;;;4995446;28;20026;-78
2023/03/19 16:11:36;;;;;;;8.75;5.43;;;12.60;84.90;;;;;;4994485;28;20034;-78
2023/03/19 16:14:08;;;;;;;8.15;5.13;;;12.60;84.80;;;;;;4977988;28;20030;-79
2023/03/19 16:16:37;;;;;;;7.88;4.93;;;12.60;84.90;;;;;;4977406;28;20034;-78
2023/03/19 16:19:03;;;;;;;8.00;5.20;;;12.60;84.80;;;;;;4993681;28;20033;-80
2023/03/19 16:21:35;;;;;;;6.80;4.50;;;12.60;84.80;;;;;;4976910;28;20023;-86
2023/03/19 16:24:07;;;;;;;7.72;4.90;;;12.60;84.80;;;;;;4976369;28;20022;-79
2023/03/19 16:26:40;;;;;;;7.00;4.57;;;12.60;84.80;;;;;;4994698;28;20061;-80
2023/03/19 16:29:25;;;;;;;7.80;4.68;;;12.60;84.80;;;;;;4995096;28;20110;-81
2023/03/19 16:31:56;;;;;;;8.05;4.85;;;12.60;84.80;;;;;;4976548;28;20041;-81
2023/03/19 16:34:32;;;;;;;7.25;4.55;;;12.60;84.70;;;;;;4994358;28;20037;-81
2023/03/19 16:36:58;;;;;;;8.73;4.97;;;12.60;84.70;;;;;;4977630;28;20030;-81
2023/03/19 16:39:32;;;;;;;8.00;4.95;;;12.50;84.70;;;;;;4993505;28;20018;-81